createdAt,value
2023-08-18T00:01:40.451Z,20.67
2023-08-18T00:04:57.339Z,20.59
2023-08-18T00:08:14.470Z,20.57
2023-08-18T00:11:32.446Z,20.52
2023-08-18T00:14:49.065Z,20.51
2023-08-18T00:18:05.648Z,20.41
2023-08-18T00:21:22.341Z,20.44
2023-08-18T00:24:38.917Z,20.45
2023-08-18T00:27:57.099Z,20.46
2023-08-18T00:31:13.739Z,20.43
2023-08-18T00:34:30.899Z,20.36
2023-08-18T00:37:48.071Z,20.37
2023-08-18T00:41:04.872Z,20.36
2023-08-18T00:44:21.830Z,20.33
2023-08-18T00:47:42.180Z,20.28
2023-08-18T00:50:59.600Z,20.28
2023-08-18T00:54:16.874Z,20.13
2023-08-18T00:57:33.782Z,20.12
2023-08-18T01:00:51.074Z,20.13
2023-08-18T01:04:09.405Z,20.18
2023-08-18T01:07:28.237Z,20.13
2023-08-18T01:10:52.468Z,20.11
2023-08-18T01:14:18.438Z,20.12
2023-08-18T01:17:40.773Z,20.12
2023-08-18T01:21:01.516Z,20.11
2023-08-18T01:24:18.657Z,20.14
2023-08-18T01:27:35.774Z,20.12
2023-08-18T01:30:57.730Z,20.05
2023-08-18T01:34:19.701Z,20.10
2023-08-18T01:37:37.935Z,20.11
2023-08-18T01:40:57.787Z,20.12
2023-08-18T01:44:18.565Z,20.11
2023-08-18T01:47:35.954Z,20.13
2023-08-18T01:50:53.186Z,20.14
2023-08-18T01:54:15.844Z,20.16
2023-08-18T01:57:32.425Z,20.26
2023-08-18T02:00:49.122Z,20.19
2023-08-18T02:04:05.810Z,20.16
2023-08-18T02:07:22.555Z,20.26
2023-08-18T02:10:39.131Z,20.22
2023-08-18T02:13:55.832Z,20.11
2023-08-18T02:17:12.657Z,20.12
2023-08-18T02:20:30.800Z,20.08
2023-08-18T02:23:47.408Z,20.03
2023-08-18T02:27:04.043Z,19.94
2023-08-18T02:30:21.622Z,19.93
2023-08-18T02:33:39.340Z,19.88
2023-08-18T02:36:55.924Z,19.86
2023-08-18T02:40:16.490Z,19.85
2023-08-18T02:43:32.955Z,19.76
2023-08-18T02:46:49.510Z,19.66
2023-08-18T02:50:06.108Z,19.68
2023-08-18T02:53:22.989Z,19.68
2023-08-18T02:56:39.646Z,19.64
2023-08-18T02:59:56.721Z,19.64
2023-08-18T03:03:14.253Z,19.66
2023-08-18T03:06:32.075Z,19.72
2023-08-18T03:09:48.814Z,19.74
2023-08-18T03:13:06.059Z,19.71
2023-08-18T03:16:25.358Z,19.66
2023-08-18T03:19:42.096Z,19.71
2023-08-18T03:22:59.110Z,19.79
2023-08-18T03:26:16.883Z,19.85
2023-08-18T03:29:34.114Z,19.80
2023-08-18T03:32:52.368Z,19.71
2023-08-18T03:36:09.732Z,19.68
2023-08-18T03:39:26.409Z,19.67
2023-08-18T03:42:42.920Z,19.71
2023-08-18T03:46:04.743Z,19.80
2023-08-18T03:49:22.658Z,19.79
2023-08-18T03:52:41.946Z,19.72
2023-08-18T03:56:02.162Z,19.58
2023-08-18T03:59:18.702Z,19.61
2023-08-18T04:02:35.511Z,19.71
2023-08-18T04:05:57.017Z,19.67
2023-08-18T04:09:20.548Z,19.55
2023-08-18T04:12:38.027Z,19.56
2023-08-18T04:15:54.945Z,19.59
2023-08-18T04:19:12.090Z,19.55
2023-08-18T04:22:29.042Z,19.53
2023-08-18T04:25:46.115Z,19.48
2023-08-18T04:29:03.390Z,19.53
2023-08-18T04:32:20.056Z,19.57
2023-08-18T04:35:36.629Z,19.66
2023-08-18T04:38:56.248Z,19.73
2023-08-18T04:42:14.860Z,19.77
2023-08-18T04:45:31.570Z,19.80
2023-08-18T04:48:48.635Z,19.87
2023-08-18T04:52:06.026Z,19.97
2023-08-18T04:55:22.793Z,20.09
2023-08-18T04:58:39.372Z,20.13
2023-08-18T05:01:56.888Z,20.18
2023-08-18T05:05:18.530Z,20.26
2023-08-18T05:08:36.845Z,20.24
2023-08-18T05:11:53.556Z,20.28
2023-08-18T05:15:10.591Z,20.30
2023-08-18T05:18:28.458Z,20.36
2023-08-18T05:21:45.644Z,20.38
2023-08-18T05:25:02.283Z,20.46
2023-08-18T05:28:18.724Z,20.53
2023-08-18T05:31:39.252Z,20.55
2023-08-18T05:34:55.862Z,20.60
2023-08-18T05:38:13.132Z,20.71
2023-08-18T05:41:29.784Z,20.77
2023-08-18T05:44:48.246Z,20.84
2023-08-18T05:48:07.069Z,20.89
2023-08-18T05:51:23.904Z,20.96
2023-08-18T05:54:40.665Z,21.01
2023-08-18T05:57:58.448Z,21.11
2023-08-18T06:01:17.049Z,21.22
2023-08-18T06:04:33.844Z,21.38
2023-08-18T06:07:50.787Z,21.41
2023-08-18T06:11:07.545Z,21.47
2023-08-18T06:14:24.218Z,21.64
2023-08-18T06:17:41.029Z,21.77
2023-08-18T06:20:58.837Z,22.01
2023-08-18T06:24:17.024Z,22.19
2023-08-18T06:27:33.860Z,22.37
2023-08-18T06:30:50.306Z,22.56
2023-08-18T06:34:07.736Z,22.72
2023-08-18T06:37:24.556Z,22.88
2023-08-18T06:40:41.326Z,22.99
2023-08-18T06:44:00.231Z,23.20
2023-08-18T06:47:17.073Z,23.33
2023-08-18T06:50:33.639Z,23.42
2023-08-18T06:53:50.264Z,23.55
2023-08-18T06:57:07.000Z,23.67
2023-08-18T07:00:25.441Z,23.88
2023-08-18T07:03:47.569Z,24.02
2023-08-18T07:07:04.508Z,24.07
2023-08-18T07:10:22.526Z,24.17
2023-08-18T07:13:39.151Z,24.28
2023-08-18T07:16:56.985Z,24.67
2023-08-18T07:20:17.687Z,25.17
2023-08-18T07:23:34.418Z,25.57
2023-08-18T07:26:50.933Z,26.03
2023-08-18T07:30:09.125Z,26.19
2023-08-18T07:33:27.216Z,26.21
2023-08-18T07:36:43.821Z,26.75
2023-08-18T07:40:00.557Z,26.97
2023-08-18T07:43:17.265Z,27.40
2023-08-18T07:46:34.156Z,27.97
2023-08-18T07:49:51.242Z,28.24
2023-08-18T07:53:07.796Z,28.68
2023-08-18T07:56:24.426Z,28.76
2023-08-18T07:59:41.164Z,28.80
2023-08-18T08:02:59.120Z,29.37
2023-08-18T08:06:13.857Z,29.71
2023-08-18T08:09:30.621Z,29.98
2023-08-18T08:12:48.309Z,29.77
2023-08-18T08:16:05.972Z,30.29
2023-08-18T08:19:22.818Z,30.95
2023-08-18T08:22:43.183Z,30.89
2023-08-18T08:25:57.984Z,31.11
2023-08-18T08:29:15.250Z,31.81
2023-08-18T08:32:33.768Z,32.32
2023-08-18T08:35:50.890Z,32.16
2023-08-18T08:39:07.786Z,32.13
2023-08-18T08:42:26.465Z,32.55
2023-08-18T08:45:44.399Z,32.87
2023-08-18T08:49:03.847Z,33.37
2023-08-18T08:52:21.873Z,33.18
2023-08-18T08:55:42.534Z,32.91
2023-08-18T08:59:00.178Z,32.75
2023-08-18T09:02:15.340Z,32.79
2023-08-18T09:05:36.581Z,32.25
2023-08-18T09:08:53.609Z,32.51
2023-08-18T09:12:13.845Z,32.77
2023-08-18T09:15:32.340Z,33.10
2023-08-18T09:18:50.131Z,32.92
2023-08-18T09:22:10.644Z,33.52
2023-08-18T09:25:29.164Z,32.97
2023-08-18T09:28:46.533Z,32.54
2023-08-18T09:32:03.442Z,32.21
2023-08-18T09:35:26.523Z,33.07
2023-08-18T09:38:51.497Z,32.95
2023-08-18T09:42:11.418Z,32.65
2023-08-18T09:45:32.730Z,32.91
2023-08-18T09:48:53.314Z,32.15
2023-08-18T09:52:14.079Z,32.29
2023-08-18T09:55:36.319Z,32.24
2023-08-18T09:58:57.384Z,32.36
2023-08-18T10:02:16.918Z,32.55
2023-08-18T10:05:35.342Z,32.52
2023-08-18T10:08:54.171Z,32.44
2023-08-18T10:12:12.254Z,32.53
2023-08-18T10:15:30.851Z,32.51
2023-08-18T10:45:36.403Z,31.68
2023-08-18T10:48:53.501Z,31.74
2023-08-18T10:52:14.009Z,31.50
2023-08-18T10:55:32.240Z,31.46
2023-08-18T10:58:49.783Z,31.39
2023-08-18T11:02:07.869Z,31.34
2023-08-18T11:05:30.347Z,31.17
2023-08-18T11:08:48.213Z,31.29
2023-08-18T11:12:06.625Z,31.25
2023-08-18T11:15:25.654Z,31.38
2023-08-18T11:18:42.306Z,31.51
2023-08-18T11:21:59.252Z,31.41
2023-08-18T11:25:18.920Z,31.06
2023-08-18T11:28:35.755Z,31.07
2023-08-18T11:31:54.865Z,31.19
2023-08-18T11:35:12.459Z,31.18
2023-08-18T11:38:29.024Z,31.28
2023-08-18T11:41:51.817Z,31.08
2023-08-18T11:45:09.452Z,31.11
2023-08-18T11:48:26.403Z,31.07
2023-08-18T11:51:44.339Z,31.01
2023-08-18T11:55:03.637Z,30.97
2023-08-18T11:58:21.975Z,30.92
2023-08-18T12:01:44.783Z,30.77
2023-08-18T12:05:02.915Z,30.65
2023-08-18T12:08:19.578Z,30.73
2023-08-18T12:11:37.046Z,30.70
2023-08-18T12:14:54.340Z,30.51
2023-08-18T12:18:11.369Z,30.43
2023-08-18T12:21:28.529Z,30.35
2023-08-18T12:24:45.697Z,30.15
2023-08-18T12:28:02.776Z,30.04
2023-08-18T12:31:22.628Z,30.03
2023-08-18T12:34:40.078Z,30.08
2023-08-18T12:37:56.877Z,30.10
2023-08-18T12:41:14.890Z,30.12
2023-08-18T12:44:31.618Z,30.09
2023-08-18T12:47:48.665Z,30.06
2023-08-18T12:51:05.467Z,30.13
2023-08-18T12:54:22.071Z,30.14
2023-08-18T12:57:38.772Z,30.08
2023-08-18T13:00:55.508Z,29.98
2023-08-18T13:04:14.696Z,29.95
2023-08-18T13:07:31.350Z,29.83
2023-08-18T13:10:48.345Z,29.90
2023-08-18T13:14:04.967Z,29.85
2023-08-18T13:17:22.291Z,29.66
2023-08-18T13:20:39.463Z,29.59
2023-08-18T13:23:57.689Z,29.44
2023-08-18T13:27:12.495Z,29.30
2023-08-18T13:30:30.618Z,29.25
2023-08-18T13:33:47.396Z,29.16
2023-08-18T13:37:04.329Z,29.08
2023-08-18T13:40:21.559Z,29.02
2023-08-18T13:43:38.270Z,28.90
2023-08-18T13:46:55.019Z,28.96
2023-08-18T13:50:13.413Z,28.95
2023-08-18T13:53:31.950Z,28.86
2023-08-18T13:56:49.537Z,28.77
2023-08-18T14:00:06.254Z,28.73
2023-08-18T14:03:25.945Z,28.61
2023-08-18T14:06:43.919Z,28.53
2023-08-18T14:10:01.320Z,28.54
2023-08-18T14:13:18.753Z,28.45
2023-08-18T14:16:36.098Z,28.29
2023-08-18T14:19:52.808Z,28.23
2023-08-18T14:23:09.629Z,28.17
2023-08-18T14:26:26.651Z,28.02
2023-08-18T14:29:43.421Z,27.96
2023-08-18T14:33:02.209Z,27.91
2023-08-18T14:36:20.248Z,27.76
2023-08-18T14:39:37.026Z,27.69
2023-08-18T14:43:06.973Z,27.41
2023-08-18T14:46:14.552Z,27.12
2023-08-18T14:49:38.761Z,26.79
2023-08-18T14:52:55.557Z,26.59
2023-08-18T14:56:12.893Z,26.36
2023-08-18T14:59:31.320Z,26.21
2023-08-18T15:02:45.852Z,25.98
2023-08-18T15:06:02.687Z,25.83
2023-08-18T15:09:20.082Z,25.79
2023-08-18T15:12:36.758Z,25.68
2023-08-18T15:15:54.031Z,25.61
2023-08-18T15:19:11.906Z,25.55
2023-08-18T15:22:28.417Z,25.51
2023-08-18T15:25:45.144Z,25.39
2023-08-18T15:29:01.738Z,25.04
2023-08-18T15:32:18.712Z,24.99
2023-08-18T15:35:36.910Z,24.78
2023-08-18T15:38:53.634Z,24.84
2023-08-18T15:42:10.598Z,24.86
2023-08-18T15:45:27.365Z,24.83
2023-08-18T15:48:44.758Z,24.81
2023-08-18T15:52:01.326Z,24.83
2023-08-18T15:55:18.669Z,24.73
2023-08-18T15:58:35.342Z,24.85
2023-08-18T16:01:52.199Z,24.86
2023-08-18T16:05:09.147Z,24.70
2023-08-18T16:08:26.141Z,24.58
2023-08-18T16:11:42.720Z,24.53
2023-08-18T16:15:27.454Z,24.55
2023-08-18T16:18:20.003Z,24.47
2023-08-18T16:21:36.686Z,24.48
2023-08-18T16:24:58.810Z,24.51
2023-08-18T16:28:16.046Z,24.57
2023-08-18T16:31:32.593Z,24.49
2023-08-18T16:34:49.454Z,24.55
2023-08-18T16:38:05.963Z,24.56
2023-08-18T16:41:23.444Z,24.53
2023-08-18T16:44:40.718Z,24.50
2023-08-18T16:47:57.331Z,24.51
2023-08-18T16:51:13.937Z,24.44
2023-08-18T16:54:31.247Z,24.41
2023-08-18T16:57:47.775Z,24.37
2023-08-18T17:01:05.001Z,24.35
2023-08-18T17:04:23.223Z,24.34
2023-08-18T17:07:39.943Z,24.27
2023-08-18T17:11:01.276Z,24.21
2023-08-18T17:14:18.981Z,24.22
2023-08-18T17:17:36.515Z,24.23
2023-08-18T17:20:54.235Z,24.10
2023-08-18T17:24:11.769Z,23.96
2023-08-18T17:27:27.220Z,23.87
2023-08-18T17:30:44.685Z,23.82
2023-08-18T17:34:01.329Z,23.83
2023-08-18T17:37:18.717Z,23.71
2023-08-18T17:40:37.763Z,23.64
2023-08-18T17:43:54.307Z,23.58
2023-08-18T17:47:10.920Z,23.55
2023-08-18T17:50:29.081Z,23.53
2023-08-18T17:53:45.830Z,23.40
2023-08-18T17:57:03.950Z,23.38
2023-08-18T18:00:29.666Z,23.36
2023-08-18T18:03:48.030Z,23.32
2023-08-18T18:07:06.532Z,23.24
2023-08-18T18:10:23.674Z,23.23
2023-08-18T18:13:41.118Z,23.17
2023-08-18T18:17:00.926Z,23.10
2023-08-18T18:20:28.378Z,23.01
2023-08-18T18:23:44.886Z,22.98
2023-08-18T18:27:01.579Z,22.96
2023-08-18T18:30:21.320Z,22.88
2023-08-18T18:33:38.038Z,22.83
2023-08-18T18:36:54.602Z,22.82
2023-08-18T18:40:17.979Z,22.76
2023-08-18T18:43:34.701Z,22.71
2023-08-18T18:46:51.771Z,22.66
2023-08-18T18:50:08.384Z,22.59
2023-08-18T18:53:25.200Z,22.52
2023-08-18T18:56:41.896Z,22.45
2023-08-18T18:59:58.480Z,22.36
2023-08-18T19:03:15.364Z,22.35
2023-08-18T19:06:32.028Z,22.32
2023-08-18T19:09:48.719Z,22.36
2023-08-18T19:13:05.318Z,22.29
2023-08-18T19:16:23.649Z,22.34
2023-08-18T19:19:40.458Z,22.41
2023-08-18T19:22:58.225Z,22.40
2023-08-18T19:26:14.913Z,22.36
2023-08-18T19:29:31.647Z,22.35
2023-08-18T19:32:50.084Z,22.34
2023-08-18T19:36:19.417Z,22.35
2023-08-18T19:39:34.859Z,22.40
2023-08-18T19:42:53.849Z,22.25
2023-08-18T19:46:11.612Z,22.26
2023-08-18T19:49:31.952Z,22.17
2023-08-18T19:52:50.750Z,22.05
2023-08-18T19:56:07.668Z,22.04
2023-08-18T19:59:25.406Z,22.06
2023-08-18T20:02:45.320Z,22.08
2023-08-18T20:06:04.113Z,22.01
2023-08-18T20:09:20.606Z,21.93
2023-08-18T20:12:39.546Z,21.95
2023-08-18T20:15:58.599Z,22.10
2023-08-18T20:19:15.513Z,22.14
2023-08-18T20:22:34.746Z,22.13
2023-08-18T20:25:51.535Z,22.06
2023-08-18T20:29:12.632Z,22.17
2023-08-18T20:32:29.473Z,22.17
2023-08-18T20:35:46.473Z,22.13
2023-08-18T20:39:03.059Z,21.97
2023-08-18T20:42:20.441Z,22.05
2023-08-18T20:45:37.126Z,22.11
2023-08-18T20:48:55.743Z,22.13
2023-08-18T20:52:13.843Z,22.04
2023-08-18T20:55:30.531Z,21.97
2023-08-18T20:58:47.085Z,21.95
2023-08-18T21:02:04.053Z,21.94
2023-08-18T21:05:20.998Z,21.95
2023-08-18T21:08:39.026Z,21.90
2023-08-18T21:11:55.575Z,21.91
2023-08-18T21:15:13.260Z,21.71
2023-08-18T21:18:43.828Z,21.66
2023-08-18T21:22:00.458Z,21.63
2023-08-18T21:25:25.432Z,21.52
2023-08-18T21:28:42.675Z,21.49
2023-08-18T21:31:59.540Z,21.48
2023-08-18T21:35:19.069Z,21.41
2023-08-18T21:38:37.014Z,21.37
2023-08-18T21:41:53.743Z,21.33
2023-08-18T21:45:11.424Z,21.12
2023-08-18T21:48:28.211Z,21.16
2023-08-18T21:51:44.981Z,21.27
2023-08-18T21:55:01.673Z,21.24
2023-08-18T21:58:18.352Z,21.18
2023-08-18T22:01:37.894Z,21.08
2023-08-18T22:04:56.647Z,21.04
2023-08-18T22:08:14.395Z,21.05
2023-08-18T22:11:31.007Z,21.05
2023-08-18T22:14:47.562Z,21.04
2023-08-18T22:18:05.288Z,20.98
2023-08-18T22:21:21.979Z,20.92
2023-08-18T22:24:40.458Z,20.89
2023-08-18T22:27:57.118Z,20.87
2023-08-18T22:31:13.881Z,20.83
2023-08-18T22:34:31.074Z,20.81
2023-08-18T22:37:48.583Z,20.82
2023-08-18T22:41:10.745Z,20.73
2023-08-18T22:44:27.761Z,20.72
2023-08-18T22:47:44.574Z,20.75
2023-08-18T22:51:01.824Z,20.70
2023-08-18T22:54:18.342Z,20.66
2023-08-18T22:57:35.095Z,20.64
2023-08-18T23:00:52.010Z,20.69
2023-08-18T23:04:08.841Z,20.71
2023-08-18T23:07:26.241Z,20.64
2023-08-18T23:10:42.911Z,20.60
2023-08-18T23:14:00.146Z,20.58
2023-08-18T23:17:17.208Z,20.55
2023-08-18T23:20:38.885Z,20.56
2023-08-18T23:23:55.601Z,20.49
2023-08-18T23:27:12.522Z,20.56
2023-08-18T23:30:29.138Z,20.58
2023-08-18T23:33:47.617Z,20.58
2023-08-18T23:37:06.737Z,20.63
2023-08-18T23:40:26.082Z,20.58
2023-08-18T23:43:44.265Z,20.54
2023-08-18T23:47:01.869Z,20.57
2023-08-18T23:50:19.910Z,20.59
2023-08-18T23:53:36.473Z,20.65
2023-08-18T23:56:53.167Z,20.64
